Time;durP1;ratioP1;P1;durP2;ratioP2;P2;SDS_P1;SDS_P2;PMS_P1;PMS_P2;Temp;Humidity;BMP_temperature;BMP_pressure;BME280_temperature;BME280_humidity;BME280_pressure;Samples;Min_cycle;Max_cycle;Signal;HPM_P1;HPM_P2
2021/05/11 00:03:05;;;;;;;;;;;13.70;99.90;;;;;;10449388;28;19968;-71
2021/05/11 00:08:06;;;;;;;;;;;13.50;99.90;;;;;;10465797;28;19982;-71
2021/05/11 00:13:08;;;;;;;;;;;13.60;99.90;;;;;;10447351;28;19925;-71
2021/05/11 00:18:10;;;;;;;;;;;13.60;99.90;;;;;;10448965;28;20069;-71
2021/05/11 00:23:11;;;;;;;;;;;13.50;99.90;;;;;;10448878;28;20360;-71
2021/05/11 00:28:13;;;;;;;;;;;13.40;99.90;;;;;;10440868;28;19964;-71
2021/05/11 00:33:14;;;;;;;;;;;13.40;99.90;;;;;;10448558;28;19964;-71
2021/05/11 00:38:15;;;;;;;;;;;13.50;99.90;;;;;;10448369;28;19933;-71
2021/05/11 00:43:16;;;;;;;;;;;13.60;99.90;;;;;;10447370;28;19972;-71
2021/05/11 00:48:18;;;;;;;;;;;13.50;99.90;;;;;;10441455;28;20016;-71
2021/05/11 00:53:19;;;;;;;;;;;13.50;99.90;;;;;;10446835;28;19933;-71
2021/05/11 00:58:21;;;;;;;;;;;13.60;99.90;;;;;;10447611;28;20032;-71
2021/05/11 01:03:22;;;;;;;;;;;13.50;99.90;;;;;;10446895;28;20015;-71
2021/05/11 01:08:23;;;;;;;;;;;13.40;99.90;;;;;;10446960;28;19925;-71
2021/05/11 01:13:25;;;;;;;;;;;13.60;99.90;;;;;;10446254;28;20163;-71
2021/05/11 01:18:30;;;;;;;;;;;13.70;99.90;;;;;;10446589;28;20023;-71
2021/05/11 01:50:09;;;;;;;;;;;13.30;99.90;;;;;;10445336;28;19928;-71
2021/05/11 02:26:57;;;;;;;;;;;13.40;99.90;;;;;;10451593;28;20388;-72
2021/05/11 02:31:58;;;;;;;;;;;13.30;99.90;;;;;;10452371;28;20340;-73
2021/05/11 02:36:59;;;;;;;;;;;13.40;99.90;;;;;;10452459;28;19956;-73
2021/05/11 02:42:00;;;;;;;;;;;13.30;99.90;;;;;;10452435;28;20019;-73
2021/05/11 02:47:02;;;;;;;;;;;13.20;99.90;;;;;;10452600;28;20019;-72
2021/05/11 02:52:03;;;;;;;;;;;13.20;99.90;;;;;;10454027;28;20023;-72
2021/05/11 02:57:05;;;;;;;;;;;13.10;99.90;;;;;;10460134;28;20368;-72
2021/05/11 03:02:07;;;;;;;;;;;12.90;99.90;;;;;;10473745;28;19972;-72
2021/05/11 03:07:09;;;;;;;;;;;13.10;99.90;;;;;;10454556;28;19935;-72
2021/05/11 03:12:10;;;;;;;;;;;13.10;99.90;;;;;;10452576;28;20019;-72
2021/05/11 03:17:12;;;;;;;;;;;13.10;99.90;;;;;;10451825;28;20573;-72
2021/05/11 03:22:13;;;;;;;;;;;13.10;99.90;;;;;;10452101;28;19925;-72
2021/05/11 03:27:16;;;;;;;;;;;13.00;99.90;;;;;;10451491;28;20063;-72
2021/05/11 03:32:17;;;;;;;;;;;12.80;99.90;;;;;;10451834;28;20012;-72
2021/05/11 03:37:18;;;;;;;;;;;13.00;99.90;;;;;;10450699;28;20447;-72
2021/05/11 03:42:34;;;;;;;;;;;12.90;99.90;;;;;;10451348;28;19925;-72
2021/05/11 03:47:44;;;;;;;;;;;12.90;99.90;;;;;;10450802;28;19975;-72
2021/05/11 03:52:46;;;;;;;;;;;13.00;99.90;;;;;;10450809;28;19925;-72
2021/05/11 03:57:48;;;;;;;;;;;13.00;99.90;;;;;;10450389;28;20385;-72
2021/05/11 04:02:50;;;;;;;;;;;13.10;99.90;;;;;;10449984;28;19972;-72
2021/05/11 04:07:56;;;;;;;;;;;13.20;99.90;;;;;;10450127;28;19964;-73
2021/05/11 04:13:33;;;;;;;;;;;13.20;99.90;;;;;;10450158;28;19986;-73
2021/05/11 04:18:35;;;;;;;;;;;13.10;99.90;;;;;;10449947;28;20412;-73
2021/05/11 04:23:37;;;;;;;;;;;13.00;99.90;;;;;;10449833;28;20008;-72
2021/05/11 04:28:39;;;;;;;;;;;12.80;99.90;;;;;;10449133;28;20336;-72
2021/05/11 04:33:41;;;;;;;;;;;12.80;99.90;;;;;;10449821;28;19999;-72
2021/05/11 04:38:43;;;;;;;;;;;12.90;99.90;;;;;;10448529;28;20355;-73
2021/05/11 04:43:45;;;;;;;;;;;13.00;99.90;;;;;;10449643;28;20020;-73
2021/05/11 04:48:48;;;;;;;;;;;13.10;99.90;;;;;;10448098;28;20016;-72
2021/05/11 04:53:50;;;;;;;;;;;13.10;99.90;;;;;;10448147;28;20356;-72
2021/05/11 04:58:52;;;;;;;;;;;13.10;99.90;;;;;;10447862;28;19931;-72
2021/05/11 05:03:56;;;;;;;;;;;13.10;99.90;;;;;;10448429;28;19979;-72
2021/05/11 05:08:58;;;;;;;;;;;13.80;99.90;;;;;;10447711;28;19929;-73
2021/05/11 05:14:00;;;;;;;;;;;15.10;99.90;;;;;;10447954;28;20004;-72
2021/05/11 05:19:05;;;;;;;;;;;14.30;99.90;;;;;;10446523;28;19986;-73
2021/05/11 05:24:16;;;;;;;;;;;13.70;99.90;;;;;;10447341;28;20375;-72
2021/05/11 05:29:18;;;;;;;;;;;13.60;99.90;;;;;;10446584;28;20409;-73
2021/05/11 05:34:20;;;;;;;;;;;13.90;99.90;;;;;;10447226;28;20011;-72
2021/05/11 05:39:27;;;;;;;;;;;13.90;99.90;;;;;;10446608;28;20058;-72
2021/05/11 05:44:28;;;;;;;;;;;14.20;99.90;;;;;;10445638;28;19979;-72
2021/05/11 05:49:41;;;;;;;;;;;14.50;99.90;;;;;;10446710;28;20007;-73
2021/05/11 05:54:43;;;;;;;;;;;14.40;99.90;;;;;;10446523;28;20019;-73
2021/05/11 05:59:45;;;;;;;;;;;14.40;99.90;;;;;;10446321;28;19933;-72
2021/05/11 06:04:47;;;;;;;;;;;14.30;99.90;;;;;;10445045;28;20020;-73
2021/05/11 06:09:49;;;;;;;;;;;14.20;99.90;;;;;;10444409;28;19975;-73
2021/05/11 06:20:08;;;;;;;;;;;14.30;99.90;;;;;;10445403;28;20043;-73
2021/05/11 06:25:11;;;;;;;;;;;14.30;99.90;;;;;;10445851;28;19971;-73
2021/05/11 06:30:13;;;;;;;;;;;14.30;99.90;;;;;;10452637;28;20016;-73
2021/05/11 06:35:14;;;;;;;;;;;14.40;99.90;;;;;;10453582;28;19976;-73
2021/05/11 06:40:16;;;;;;;;;;;14.40;99.90;;;;;;10454167;28;19968;-73
2021/05/11 06:46:06;;;;;;;;;;;14.40;99.90;;;;;;10451061;28;19968;-64
2021/05/11 06:56:15;;;;;;;;;;;14.30;99.90;;;;;;10479916;28;19924;-64
2021/05/11 07:01:21;;;;;;;;;;;14.30;99.90;;;;;;10475173;28;19947;-64
2021/05/11 07:06:23;;;;;;;;;;;14.30;99.90;;;;;;10451035;28;19978;-64
2021/05/11 07:11:31;;;;;;;;;;;14.20;99.90;;;;;;10451405;28;19964;-64
2021/05/11 07:16:34;;;;;;;;;;;14.30;99.90;;;;;;10451572;28;19972;-64
2021/05/11 07:21:36;;;;;;;;;;;14.30;99.90;;;;;;10450204;28;19928;-64
2021/05/11 07:26:58;;;;;;;;;;;14.40;99.90;;;;;;10451433;28;19928;-64
2021/05/11 07:31:59;;;;;;;;;;;14.60;99.90;;;;;;10451214;28;20019;-64
2021/05/11 07:37:01;;;;;;;;;;;14.70;99.90;;;;;;10451315;28;19959;-64
2021/05/11 07:42:03;;;;;;;;;;;14.80;99.90;;;;;;10450057;28;19924;-64
2021/05/11 08:28:43;;;;;;;;;;;14.80;99.90;;;;;;10449067;28;20043;-64
2021/05/11 08:33:45;;;;;;;;;;;14.80;99.90;;;;;;10448997;28;20011;-64
2021/05/11 08:38:47;;;;;;;;;;;14.80;99.90;;;;;;10448759;28;19924;-64
2021/05/11 08:43:49;;;;;;;;;;;14.80;99.90;;;;;;10448737;28;20408;-64
2021/05/11 08:48:52;;;;;;;;;;;14.60;99.90;;;;;;10421994;28;19929;-64
2021/05/11 09:26:01;;;;;;;;;;;14.40;99.90;;;;;;10447328;28;19983;-64
2021/05/11 09:31:20;;;;;;;;;;;14.50;99.90;;;;;;10446364;28;19947;-64
2021/05/11 10:46:49;;;;;;;;;;;15.20;99.90;;;;;;10444775;28;20027;-64
2021/05/11 10:52:12;;;;;;;;;;;15.30;99.90;;;;;;10445166;28;19925;-64
2021/05/11 10:57:27;;;;;;;;;;;15.30;99.90;;;;;;10444207;28;19935;-64
2021/05/11 11:07:35;;;;;;;;;;;15.50;99.90;;;;;;10445013;28;20373;-64
2021/05/11 11:12:38;;;;;;;;;;;15.50;99.90;;;;;;10443617;28;19994;-64
2021/05/11 11:17:44;;;;;;;;;;;15.60;99.90;;;;;;10452343;28;20023;-64
2021/05/11 11:28:26;;;;;;;;;;;15.60;99.90;;;;;;10451150;28;19925;-64
2021/05/11 11:33:28;;;;;;;;;;;15.60;99.90;;;;;;10411033;28;19925;-64
2021/05/11 11:38:30;;;;;;;;;;;15.60;99.90;;;;;;10411252;28;19925;-64
2021/05/11 11:43:32;;;;;;;;;;;15.60;99.90;;;;;;10450365;28;20007;-64
2021/05/11 11:48:33;;;;;;;;;;;15.50;99.90;;;;;;10450735;28;20070;-64
2021/05/11 11:53:38;;;;;;;;;;;15.60;99.90;;;;;;10450522;28;20377;-64
2021/05/11 11:58:40;;;;;;;;;;;15.60;99.90;;;;;;10450218;28;20020;-64
2021/05/11 12:03:43;;;;;;;;;;;15.50;99.90;;;;;;10450666;28;19998;-64
2021/05/11 12:08:50;;;;;;;;;;;15.40;99.90;;;;;;10450385;28;20011;-64
2021/05/11 12:13:53;;;;;;;;;;;15.40;99.90;;;;;;10449622;28;19925;-64
2021/05/11 12:19:09;;;;;;;;;;;15.30;99.90;;;;;;10463231;28;19954;-65
2021/05/11 12:24:11;;;;;;;;;;;15.40;99.90;;;;;;10485462;28;19972;-64
2021/05/11 12:29:15;;;;;;;;;;;15.50;99.90;;;;;;10448099;28;19928;-65
2021/05/11 12:34:23;;;;;;;;;;;15.90;99.90;;;;;;10448349;28;20015;-64
2021/05/11 12:39:40;;;;;;;;;;;15.60;99.90;;;;;;10446288;28;20040;-64
2021/05/11 12:44:41;;;;;;;;;;;15.40;99.90;;;;;;10448888;28;19972;-64
2021/05/11 12:49:44;;;;;;;;;;;15.30;99.90;;;;;;10447193;28;20312;-64
2021/05/11 12:54:49;;;;;;;;;;;15.40;99.90;;;;;;10447758;28;19932;-64
2021/05/11 13:09:21;;;;;;;;;;;15.60;99.90;;;;;;10447882;28;20019;-64
2021/05/11 13:21:15;;;;;;;;;;;15.70;99.90;;;;;;10447033;28;20392;-64
2021/05/11 13:26:24;;;;;;;;;;;15.60;99.90;;;;;;10429370;28;19928;-64
2021/05/11 13:31:37;;;;;;;;;;;15.70;99.90;;;;;;10444106;28;20011;-65
2021/05/11 13:36:41;;;;;;;;;;;15.90;99.90;;;;;;10441376;28;19925;-65
2021/05/11 13:41:45;;;;;;;;;;;15.90;99.90;;;;;;10438437;28;19925;-64
2021/05/11 13:46:46;;;;;;;;;;;16.00;99.90;;;;;;10434692;28;19925;-65
2021/05/11 13:51:49;;;;;;;;;;;15.90;99.90;;;;;;10446386;28;19932;-65
2021/05/11 13:57:11;;;;;;;;;;;16.00;99.90;;;;;;10445504;28;20371;-65
2021/05/11 14:07:33;;;;;;;;;;;16.00;99.90;;;;;;10444083;28;19924;-65
2021/05/11 14:12:35;;;;;;;;;;;15.90;99.90;;;;;;10445115;28;19975;-64
2021/05/11 14:17:37;;;;;;;;;;;15.70;99.90;;;;;;10445131;28;20157;-65
2021/05/11 14:22:39;;;;;;;;;;;15.80;99.90;;;;;;10442863;28;19925;-65
2021/05/11 14:27:45;;;;;;;;;;;15.90;99.90;;;;;;10444665;28;19948;-65
2021/05/11 14:32:47;;;;;;;;;;;16.10;99.90;;;;;;10445344;28;20361;-65
2021/05/11 14:37:49;;;;;;;;;;;16.30;99.90;;;;;;10444127;28;20258;-64
2021/05/11 14:42:53;;;;;;;;;;;16.30;99.90;;;;;;10445223;28;19975;-65
2021/05/11 14:47:54;;;;;;;;;;;16.40;99.90;;;;;;10445787;28;20007;-65
2021/05/11 14:52:59;;;;;;;;;;;16.60;99.90;;;;;;10451491;28;19960;-64
2021/05/11 14:58:00;;;;;;;;;;;16.50;99.90;;;;;;10453189;28;19929;-65
2021/05/11 15:03:02;;;;;;;;;;;16.40;99.90;;;;;;10450720;28;20024;-64
2021/05/11 15:08:04;;;;;;;;;;;16.20;99.90;;;;;;10449812;28;19979;-64
2021/05/11 15:13:06;;;;;;;;;;;16.20;99.90;;;;;;10451836;28;19931;-65
2021/05/11 15:18:08;;;;;;;;;;;16.20;99.90;;;;;;10450697;28;19924;-65
2021/05/11 15:23:11;;;;;;;;;;;15.90;99.90;;;;;;10452211;28;19929;-64
2021/05/11 15:28:14;;;;;;;;;;;15.80;99.90;;;;;;10451884;28;19925;-65
2021/05/11 15:33:16;;;;;;;;;;;15.80;99.90;;;;;;10448984;28;20308;-64
2021/05/11 15:38:18;;;;;;;;;;;15.70;99.90;;;;;;10450418;28;20381;-65
2021/05/11 15:43:19;;;;;;;;;;;15.80;99.90;;;;;;10450745;28;19998;-65
2021/05/11 15:48:21;;;;;;;;;;;15.70;99.90;;;;;;10449758;28;19933;-64
2021/05/11 15:53:23;;;;;;;;;;;15.80;99.90;;;;;;10433001;28;19951;-64
2021/05/11 15:58:25;;;;;;;;;;;15.60;99.90;;;;;;10432427;28;20393;-65
2021/05/11 16:03:27;;;;;;;;;;;15.60;99.90;;;;;;10433638;28;20024;-65
2021/05/11 16:08:29;;;;;;;;;;;15.60;99.90;;;;;;10449291;28;19980;-64
2021/05/11 16:13:32;;;;;;;;;;;15.70;99.90;;;;;;10447207;28;20356;-64
2021/05/11 16:18:36;;;;;;;;;;;15.70;99.90;;;;;;10462609;28;20024;-64
2021/05/11 16:23:37;;;;;;;;;;;15.80;99.90;;;;;;10427350;28;20027;-65
2021/05/11 16:28:39;;;;;;;;;;;15.70;99.90;;;;;;10425173;28;20054;-64
2021/05/11 16:33:41;;;;;;;;;;;15.60;99.90;;;;;;10448369;28;19928;-64
2021/05/11 16:38:43;;;;;;;;;;;15.60;99.90;;;;;;10453751;28;20367;-65
2021/05/11 16:43:45;;;;;;;;;;;15.50;99.90;;;;;;10429138;28;20459;-65
2021/05/11 16:48:47;;;;;;;;;;;15.40;99.90;;;;;;10429039;28;19929;-65
2021/05/11 16:53:48;;;;;;;;;;;15.30;99.90;;;;;;10434644;28;19968;-65
2021/05/11 16:58:50;;;;;;;;;;;15.20;99.90;;;;;;10446891;28;19947;-64
2021/05/11 17:03:52;;;;;;;;;;;15.20;99.90;;;;;;10443301;28;20349;-65
2021/05/11 17:08:54;;;;;;;;;;;15.20;99.90;;;;;;10443077;28;20456;-65
2021/05/11 17:13:56;;;;;;;;;;;15.30;99.90;;;;;;10444008;28;20469;-64
2021/05/11 17:18:58;;;;;;;;;;;15.20;99.90;;;;;;10457859;28;19956;-65
2021/05/11 17:24:02;;;;;;;;;;;15.30;99.90;;;;;;10442781;28;20032;-65
2021/05/11 17:29:07;;;;;;;;;;;15.20;99.90;;;;;;10418333;28;20374;-64
2021/05/11 17:34:11;;;;;;;;;;;15.10;99.90;;;;;;10444594;28;19928;-64
2021/05/11 17:39:13;;;;;;;;;;;15.00;99.90;;;;;;10444904;28;19928;-64
2021/05/11 17:44:14;;;;;;;;;;;14.90;99.90;;;;;;10455749;28;19972;-65
2021/05/11 17:49:16;;;;;;;;;;;14.90;99.90;;;;;;10431364;28;19972;-65
2021/05/11 17:54:18;;;;;;;;;;;14.70;99.90;;;;;;10455579;28;20007;-64
2021/05/11 17:59:21;;;;;;;;;;;14.60;99.90;;;;;;10436793;28;20150;-64
2021/05/11 18:04:23;;;;;;;;;;;14.60;99.90;;;;;;10444527;28;20119;-64
2021/05/11 18:09:26;;;;;;;;;;;14.70;99.90;;;;;;10444159;28;20023;-64
2021/05/11 18:14:28;;;;;;;;;;;14.60;99.90;;;;;;10438765;28;20392;-64
2021/05/11 18:19:30;;;;;;;;;;;14.60;99.90;;;;;;10440705;28;20012;-64
2021/05/11 18:24:32;;;;;;;;;;;14.60;99.90;;;;;;10449655;28;20366;-64
2021/05/11 18:29:34;;;;;;;;;;;14.50;99.90;;;;;;10452829;28;19964;-64
2021/05/11 18:34:38;;;;;;;;;;;14.30;99.90;;;;;;10453034;28;20024;-64
2021/05/11 18:39:40;;;;;;;;;;;14.00;99.90;;;;;;10451158;28;19964;-64
2021/05/11 18:44:42;;;;;;;;;;;14.00;99.90;;;;;;10442877;28;20016;-64
2021/05/11 18:49:44;;;;;;;;;;;13.80;99.90;;;;;;10427624;28;19926;-64
2021/05/11 18:54:52;;;;;;;;;;;13.70;99.90;;;;;;10441314;28;19966;-64
2021/05/11 18:59:54;;;;;;;;;;;13.70;99.90;;;;;;10444821;28;20435;-64
2021/05/11 19:04:55;;;;;;;;;;;13.60;99.90;;;;;;10449486;28;20399;-64
2021/05/11 19:09:57;;;;;;;;;;;13.50;99.90;;;;;;10449619;28;20024;-70
2021/05/11 19:14:59;;;;;;;;;;;13.50;99.90;;;;;;10449814;28;19928;-70
2021/05/11 19:20:02;;;;;;;;;;;13.40;99.90;;;;;;10434838;28;20028;-70
2021/05/11 19:25:05;;;;;;;;;;;13.30;99.90;;;;;;10447109;28;19983;-71
2021/05/11 19:30:09;;;;;;;;;;;13.30;99.90;;;;;;10430750;28;19931;-70
2021/05/11 19:35:14;;;;;;;;;;;13.30;99.90;;;;;;10437806;28;19925;-71
2021/05/11 19:40:16;;;;;;;;;;;13.30;99.90;;;;;;10448939;28;20032;-71
2021/05/11 19:45:20;;;;;;;;;;;13.30;99.90;;;;;;10435253;28;20356;-71
2021/05/11 19:50:21;;;;;;;;;;;13.30;99.90;;;;;;10430466;28;19982;-71
2021/05/11 19:55:24;;;;;;;;;;;13.30;99.90;;;;;;10448825;28;20476;-71
2021/05/11 20:00:26;;;;;;;;;;;13.30;99.90;;;;;;10447430;28;20036;-71
2021/05/11 20:05:28;;;;;;;;;;;13.10;99.90;;;;;;10449186;28;20016;-71
2021/05/11 20:10:31;;;;;;;;;;;13.00;99.90;;;;;;10447836;28;19968;-71
2021/05/11 20:15:32;;;;;;;;;;;13.00;99.90;;;;;;10448669;28;19956;-71
2021/05/11 20:20:38;;;;;;;;;;;13.10;99.90;;;;;;10447985;28;20816;-71
2021/05/11 20:25:40;;;;;;;;;;;13.00;99.90;;;;;;10448361;28;20016;-71
2021/05/11 20:30:43;;;;;;;;;;;13.00;99.90;;;;;;10446230;28;20019;-71
2021/05/11 20:35:49;;;;;;;;;;;13.00;99.90;;;;;;10447769;28;19932;-71
2021/05/11 20:40:51;;;;;;;;;;;13.00;99.90;;;;;;10427338;28;20432;-70
2021/05/11 20:45:53;;;;;;;;;;;13.00;99.90;;;;;;10447461;28;20044;-70
2021/05/11 20:50:54;;;;;;;;;;;13.00;99.90;;;;;;10446209;28;19960;-70
2021/05/11 20:55:56;;;;;;;;;;;13.00;99.90;;;;;;10447213;28;20047;-70
2021/05/11 21:00:58;;;;;;;;;;;12.90;99.90;;;;;;10446990;28;20309;-70
2021/05/11 21:06:00;;;;;;;;;;;12.90;99.90;;;;;;10442752;28;19975;-70
2021/05/11 21:11:02;;;;;;;;;;;12.90;99.90;;;;;;10447317;28;19935;-70
2021/05/11 21:16:05;;;;;;;;;;;12.90;99.90;;;;;;10447022;28;19959;-70
2021/05/11 21:21:08;;;;;;;;;;;12.80;99.90;;;;;;10447367;28;20299;-70
2021/05/11 21:26:10;;;;;;;;;;;12.80;99.90;;;;;;10445763;28;19929;-70
2021/05/11 21:31:12;;;;;;;;;;;12.80;99.90;;;;;;10447018;28;19929;-70
2021/05/11 21:36:13;;;;;;;;;;;12.80;99.90;;;;;;10445778;28;19952;-70
2021/05/11 21:41:15;;;;;;;;;;;12.70;99.90;;;;;;10446651;28;20018;-70
2021/05/11 21:46:17;;;;;;;;;;;12.80;99.90;;;;;;10445678;28;20330;-70
2021/05/11 21:51:19;;;;;;;;;;;12.80;99.90;;;;;;10445178;28;20043;-71
2021/05/11 21:56:21;;;;;;;;;;;12.80;99.90;;;;;;10445281;28;20027;-70
2021/05/11 22:01:24;;;;;;;;;;;12.80;99.90;;;;;;10444918;28;19972;-71
2021/05/11 22:06:26;;;;;;;;;;;12.80;99.90;;;;;;10445921;28;19971;-70
2021/05/11 22:11:29;;;;;;;;;;;12.80;99.90;;;;;;10444883;28;19991;-70
2021/05/11 22:16:32;;;;;;;;;;;12.70;99.90;;;;;;10445698;28;19964;-70
2021/05/11 22:21:34;;;;;;;;;;;12.70;99.90;;;;;;10445185;28;19925;-70
2021/05/11 22:26:36;;;;;;;;;;;12.60;99.90;;;;;;10445330;28;19924;-70
2021/05/11 22:31:38;;;;;;;;;;;12.50;99.90;;;;;;10444857;28;19975;-70
2021/05/11 22:36:41;;;;;;;;;;;12.40;99.90;;;;;;10404590;28;20011;-70
2021/05/11 22:41:43;;;;;;;;;;;12.40;99.90;;;;;;10439957;28;19925;-70
2021/05/11 22:46:45;;;;;;;;;;;12.50;99.90;;;;;;10444631;28;19972;-70
2021/05/11 22:51:47;;;;;;;;;;;12.40;99.90;;;;;;10443361;28;20343;-70
2021/05/11 22:56:49;;;;;;;;;;;12.40;99.90;;;;;;10444791;28;19932;-70
2021/05/11 23:01:51;;;;;;;;;;;12.40;99.90;;;;;;10444348;28;19931;-70
2021/05/11 23:06:53;;;;;;;;;;;12.30;99.90;;;;;;10444600;28;20428;-70
2021/05/11 23:11:56;;;;;;;;;;;12.30;99.90;;;;;;10450858;28;19975;-70
2021/05/11 23:17:01;;;;;;;;;;;12.30;99.90;;;;;;10452266;28;20015;-70
2021/05/11 23:22:03;;;;;;;;;;;12.40;99.90;;;;;;10450876;28;20292;-71
2021/05/11 23:27:05;;;;;;;;;;;12.20;99.90;;;;;;10450728;28;19932;-70
2021/05/11 23:32:06;;;;;;;;;;;12.30;99.90;;;;;;10452077;28;19925;-71
2021/05/11 23:37:08;;;;;;;;;;;12.20;99.90;;;;;;10451344;28;20027;-70
2021/05/11 23:42:10;;;;;;;;;;;12.30;99.90;;;;;;10451414;28;19932;-70
2021/05/11 23:47:12;;;;;;;;;;;12.30;99.90;;;;;;10450977;28;19928;-70
2021/05/11 23:52:13;;;;;;;;;;;12.30;99.90;;;;;;10449848;28;20019;-70
2021/05/11 23:57:15;;;;;;;;;;;12.20;99.90;;;;;;10450923;28;20008;-70
